Time;durP1;ratioP1;P1;durP2;ratioP2;P2;SDS_P1;SDS_P2;PMS_P1;PMS_P2;Temp;Humidity;BMP_temperature;BMP_pressure;BME280_temperature;BME280_humidity;BME280_pressure;Samples;Min_cycle;Max_cycle;Signal;HPM_P1;HPM_P2
2022/02/21 00:02:06;;;;;;;6.20;4.63;;;;;;;9.71;60.41;95023.28;4910311;29;20039;-78
2022/02/21 00:04:31;;;;;;;6.85;4.40;;;;;;;9.66;60.66;95025.75;4932910;29;20063;-78
2022/02/21 00:06:57;;;;;;;9.18;4.57;;;;;;;9.61;60.60;95026.44;4916631;29;20044;-78
2022/02/21 00:09:22;;;;;;;6.55;4.13;;;;;;;9.51;60.99;95029.53;4932328;29;20032;-78
2022/02/21 00:11:48;;;;;;;7.93;4.78;;;;;;;9.51;60.76;95024.34;4933338;29;20028;-78
2022/02/21 00:14:13;;;;;;;7.60;4.68;;;;;;;9.46;60.99;95024.22;4941268;28;20046;-78
2022/02/21 00:16:39;;;;;;;6.28;4.47;;;;;;;9.36;61.39;95030.94;4901610;29;20044;-78
2022/02/21 00:19:04;;;;;;;4.65;4.22;;;;;;;9.26;61.51;95021.06;4932759;29;20040;-78
2022/02/21 00:21:30;;;;;;;5.63;4.47;;;;;;;9.16;62.13;95023.41;4931108;29;20531;-78
2022/02/21 00:23:56;;;;;;;4.80;4.32;;;;;;;9.10;62.28;95029.44;4933227;29;20046;-78
2022/02/21 00:26:21;;;;;;;6.40;4.65;;;;;;;9.02;62.63;95023.53;4939620;29;20036;-78
2022/02/21 00:28:48;;;;;;;5.80;4.03;;;;;;;9.03;62.34;95019.94;4931216;29;20518;-78
2022/02/21 00:31:13;;;;;;;7.53;4.50;;;;;;;8.97;63.32;95007.84;4916952;29;20476;-78
2022/02/21 00:33:39;;;;;;;6.03;4.55;;;;;;;8.98;62.92;95006.81;4918298;29;20046;-78
2022/02/21 00:36:04;;;;;;;8.38;4.75;;;;;;;9.02;62.78;94992.41;4934612;29;20078;-77
2022/02/21 00:38:30;;;;;;;7.80;4.88;;;;;;;9.07;62.77;94996.16;4943164;29;20036;-78
2022/02/21 00:40:55;;;;;;;6.95;4.93;;;;;;;9.08;62.64;94995.13;4918571;29;20087;-78
2022/02/21 00:43:21;;;;;;;8.82;5.13;;;;;;;9.15;62.83;94985.50;4933638;29;20042;-78
2022/02/21 00:45:46;;;;;;;6.55;4.57;;;;;;;9.22;62.13;94993.97;4935281;29;20047;-78
2022/02/21 00:48:12;;;;;;;5.93;4.80;;;;;;;9.28;61.91;94995.72;4933995;29;20035;-78
2022/02/21 00:50:37;;;;;;;8.55;5.30;;;;;;;9.33;62.03;94993.25;4933716;29;20508;-78
2022/02/21 00:53:03;;;;;;;10.02;5.70;;;;;;;9.41;61.60;94994.72;4925773;29;20039;-77
2022/02/21 00:55:30;;;;;;;7.72;5.53;;;;;;;9.47;61.36;94984.28;4934756;29;20401;-78
2022/02/21 00:57:55;;;;;;;7.72;4.50;;;;;;;9.46;61.30;94981.91;4925476;29;20047;-78
2022/02/21 01:00:21;;;;;;;6.97;4.20;;;;;;;9.40;61.74;94985.34;4917611;29;20043;-77
2022/02/21 01:02:46;;;;;;;4.43;4.03;;;;;;;9.29;61.15;94972.13;4934826;29;20048;-78
2022/02/21 01:05:12;;;;;;;4.30;4.00;;;;;;;9.20;61.72;94970.06;4933505;29;20031;-78
2022/02/21 01:07:38;;;;;;;6.60;4.47;;;;;;;9.19;62.18;94965.88;4926717;29;20043;-78
2022/02/21 01:10:04;;;;;;;7.05;5.40;;;;;;;9.17;62.11;94960.13;4926780;29;20055;-78
2022/02/21 01:12:29;;;;;;;6.65;4.63;;;;;;;9.13;61.74;94961.56;4933765;29;20046;-78
2022/02/21 01:14:55;;;;;;;5.53;4.47;;;;;;;9.10;62.26;94964.56;4917931;29;20037;-78
2022/02/21 01:17:22;;;;;;;5.88;4.75;;;;;;;9.07;62.26;94957.22;4934020;29;20035;-78
2022/02/21 01:19:49;;;;;;;6.13;4.85;;;;;;;9.01;62.83;94954.50;4935025;29;20043;-78
2022/02/21 01:22:14;;;;;;;5.03;4.38;;;;;;;8.97;62.85;94958.56;4933797;29;20040;-78
2022/02/21 01:24:40;;;;;;;5.18;4.50;;;;;;;8.93;62.79;94941.81;4910051;29;20082;-78
2022/02/21 01:27:05;;;;;;;5.10;4.43;;;;;;;8.87;62.90;94947.91;4917127;29;20042;-77
2022/02/21 01:29:30;;;;;;;6.25;4.18;;;;;;;8.81;62.45;94951.38;4934663;29;20483;-78
2022/02/21 01:31:56;;;;;;;5.18;3.80;;;;;;;8.76;62.52;94956.38;4940712;29;20088;-78
2022/02/21 01:34:21;;;;;;;4.75;4.35;;;;;;;8.74;62.64;94963.59;4917343;29;20039;-78
2022/02/21 01:36:47;;;;;;;4.80;4.28;;;;;;;8.73;62.92;94962.00;4933291;29;20423;-77
2022/02/21 01:39:13;;;;;;;5.20;3.90;;;;;;;8.72;62.85;94961.22;4933076;29;20114;-78
2022/02/21 01:41:38;;;;;;;5.93;4.53;;;;;;;8.70;62.89;94962.44;4941455;29;20038;-77
2022/02/21 01:44:09;;;;;;;7.38;4.28;;;;;;;8.64;63.20;94971.09;4932327;29;20031;-77
2022/02/21 01:46:35;;;;;;;6.05;4.45;;;;;;;8.65;63.03;94957.13;4909598;29;20035;-77
2022/02/21 01:49:00;;;;;;;6.35;3.85;;;;;;;8.66;63.23;94949.13;4933849;29;20054;-77
2022/02/21 01:51:25;;;;;;;8.77;6.60;;;;;;;8.68;63.17;94943.72;4916751;29;20035;-77
2022/02/21 01:53:53;;;;;;;9.68;6.82;;;;;;;8.65;63.10;94944.16;4933459;29;20790;-77
2022/02/21 01:56:18;;;;;;;17.15;7.38;;;;;;;8.65;62.79;94933.81;4932315;29;20043;-78
2022/02/21 01:58:44;;;;;;;7.32;6.03;;;;;;;8.69;63.22;94924.56;4932729;29;20032;-78
2022/02/21 02:01:09;;;;;;;11.18;5.97;;;;;;;8.69;62.45;94919.38;4932594;29;20647;-77
2022/02/21 02:03:34;;;;;;;8.90;6.80;;;;;;;8.73;62.82;94918.72;4933693;29;20028;-77
2022/02/21 02:06:00;;;;;;;11.18;6.63;;;;;;;8.66;62.96;94917.25;4933560;29;20496;-77
2022/02/21 02:08:25;;;;;;;10.27;6.60;;;;;;;8.62;63.26;94916.88;4924349;29;20047;-77
2022/02/21 02:10:51;;;;;;;6.72;6.03;;;;;;;8.56;63.57;94911.75;4933781;29;20038;-77
2022/02/21 02:13:16;;;;;;;8.85;6.05;;;;;;;8.51;63.58;94906.44;4923364;29;20567;-77
2022/02/21 02:15:42;;;;;;;8.07;6.05;;;;;;;8.53;63.35;94907.00;4939850;29;20051;-77
2022/02/21 02:18:07;;;;;;;10.60;6.70;;;;;;;8.56;62.89;94901.38;4933408;29;20036;-77
2022/02/21 02:20:32;;;;;;;7.78;5.95;;;;;;;8.52;63.31;94893.25;4924176;29;20567;-77
2022/02/21 02:22:58;;;;;;;10.20;6.05;;;;;;;8.54;63.52;94895.63;4932011;29;20047;-77
2022/02/21 02:25:23;;;;;;;9.23;7.03;;;;;;;8.43;62.82;94890.16;4932091;29;20419;-77
2022/02/21 02:27:49;;;;;;;8.70;7.03;;;;;;;8.37;63.16;94891.03;4916212;29;20043;-77
2022/02/21 02:30:15;;;;;;;8.63;7.45;;;;;;;8.32;63.51;94883.09;4924351;29;20122;-78
2022/02/21 02:32:40;;;;;;;7.75;6.65;;;;;;;8.29;64.13;94886.09;4933627;29;20070;-77
2022/02/21 02:35:06;;;;;;;12.98;7.75;;;;;;;8.28;64.25;94896.66;4933283;29;20039;-77
2022/02/21 02:37:31;;;;;;;11.07;7.57;;;;;;;8.23;63.94;94894.72;4932558;29;20036;-77
2022/02/21 02:39:58;;;;;;;7.55;6.43;;;;;;;8.15;64.65;94887.25;4934018;29;20492;-77
2022/02/21 02:42:23;;;;;;;8.60;7.18;;;;;;;8.17;64.21;94889.63;4933911;29;20031;-77
2022/02/21 02:44:48;;;;;;;8.75;6.30;;;;;;;8.18;63.86;94896.38;4932386;29;20036;-77
2022/02/21 02:47:14;;;;;;;11.57;7.25;;;;;;;8.05;64.08;94900.69;4916034;29;20035;-77
2022/02/21 02:49:40;;;;;;;10.48;7.97;;;;;;;8.05;64.36;94902.47;4932829;29;20040;-77
2022/02/21 02:52:06;;;;;;;13.60;8.15;;;;;;;7.99;64.00;94890.41;4931589;29;20040;-77
2022/02/21 02:54:31;;;;;;;15.77;8.30;;;;;;;7.92;64.26;94892.25;4931400;29;20114;-77
2022/02/21 02:56:57;;;;;;;24.25;11.43;;;;;;;7.89;64.03;94893.47;4931708;29;20043;-78
2022/02/21 02:59:24;;;;;;;41.17;13.45;;;;;;;7.83;63.91;94897.69;4923808;29;20087;-79
2022/02/21 03:01:50;;;;;;;33.97;13.60;;;;;;;7.73;63.97;94902.56;4934613;29;20043;-78
2022/02/21 03:04:15;;;;;;;29.80;14.70;;;;;;;7.67;64.25;94898.22;4917324;29;20435;-78
2022/02/21 03:06:41;;;;;;;29.63;15.25;;;;;;;7.67;63.95;94906.00;4917691;29;20090;-78
2022/02/21 03:09:06;;;;;;;27.88;14.88;;;;;;;7.62;64.69;94910.19;4932948;29;20498;-78
2022/02/21 03:11:32;;;;;;;31.17;16.48;;;;;;;7.62;63.74;94916.16;4933242;29;20062;-78
2022/02/21 03:13:59;;;;;;;33.20;18.27;;;;;;;7.60;64.16;94909.63;4935390;29;20039;-78
2022/02/21 03:16:25;;;;;;;39.38;20.13;;;;;;;7.56;63.88;94914.44;4934455;29;20040;-78
2022/02/21 03:18:51;;;;;;;34.25;19.85;;;;;;;7.51;64.40;94906.50;4933895;29;20143;-78
2022/02/21 03:21:16;;;;;;;40.03;19.80;;;;;;;7.47;64.51;94905.31;4918293;29;20058;-78
2022/02/21 03:23:41;;;;;;;42.47;21.63;;;;;;;7.43;64.20;94901.56;4933250;29;20055;-79
2022/02/21 03:26:07;;;;;;;42.15;24.00;;;;;;;7.40;64.33;94886.47;4934145;29;20047;-78
2022/02/21 03:28:33;;;;;;;43.15;23.88;;;;;;;7.38;64.22;94888.50;4919183;29;20571;-78
2022/02/21 03:30:58;;;;;;;48.88;24.73;;;;;;;7.37;64.22;94887.69;4933920;29;20035;-78
2022/02/21 03:33:24;;;;;;;50.15;25.88;;;;;;;7.27;64.48;94881.38;4933410;29;20031;-78
2022/02/21 03:35:49;;;;;;;150.43;68.43;;;;;;;7.33;64.40;94883.16;4934021;29;20099;-78
2022/02/21 03:38:14;;;;;;;191.68;91.20;;;;;;;7.35;64.80;94878.56;4934353;29;20039;-78
2022/02/21 03:40:40;;;;;;;105.63;52.50;;;;;;;7.35;64.92;94873.41;4919257;29;20047;-78
2022/02/21 03:43:06;;;;;;;81.13;41.72;;;;;;;7.32;64.51;94876.38;4934797;29;20060;-78
2022/02/21 03:45:31;;;;;;;58.25;34.53;;;;;;;7.40;65.22;94878.72;4934888;29;20035;-78
2022/02/21 03:47:57;;;;;;;55.28;32.88;;;;;;;7.49;65.70;94877.47;4930290;29;20028;-78
2022/02/21 03:50:22;;;;;;;52.40;34.28;;;;;;;7.54;65.07;94872.44;4938175;29;20051;-78
2022/02/21 03:52:48;;;;;;;53.25;33.90;;;;;;;7.58;65.04;94859.88;4944752;29;20032;-78
2022/02/21 03:55:14;;;;;;;54.13;35.30;;;;;;;7.61;65.41;94860.25;4944092;29;20046;-77
2022/02/21 03:57:39;;;;;;;57.92;33.25;;;;;;;7.65;65.16;94856.25;4936975;29;20067;-78
2022/02/21 04:00:06;;;;;;;51.05;35.67;;;;;;;7.74;64.21;94854.94;4933605;29;20168;-78
2022/02/21 04:02:32;;;;;;;46.08;31.98;;;;;;;7.79;64.74;94854.31;4934128;29;20499;-78
2022/02/21 04:05:00;;;;;;;41.70;26.27;;;;;;;7.81;64.03;94853.13;4917964;29;20059;-78
2022/02/21 04:07:27;;;;;;;33.10;21.38;;;;;;;7.80;64.21;94859.28;4937119;29;20111;-79
2022/02/21 04:09:52;;;;;;;45.95;27.77;;;;;;;7.83;64.12;94851.09;4937525;29;20114;-78
2022/02/21 04:12:17;;;;;;;40.38;25.08;;;;;;;7.78;65.10;94847.53;4922410;29;20032;-78
2022/02/21 04:14:43;;;;;;;18.02;11.93;;;;;;;7.79;64.36;94849.91;4939368;29;20051;-78
2022/02/21 04:17:08;;;;;;;25.40;13.68;;;;;;;7.73;65.05;94850.00;4939110;29;20039;-78
2022/02/21 04:19:34;;;;;;;12.70;9.98;;;;;;;7.70;65.42;94848.63;4937845;29;20456;-78
2022/02/21 04:21:59;;;;;;;15.98;10.70;;;;;;;7.69;65.44;94848.84;4937142;29;20087;-78
2022/02/21 04:24:25;;;;;;;19.92;13.82;;;;;;;7.75;64.48;94840.22;4934851;29;20428;-78
2022/02/21 04:26:50;;;;;;;17.50;13.40;;;;;;;7.72;64.75;94838.84;4935118;29;20097;-77
2022/02/21 04:29:16;;;;;;;23.08;13.02;;;;;;;7.64;64.91;94839.09;4943896;28;20092;-79
2022/02/21 04:31:41;;;;;;;17.38;13.30;;;;;;;7.63;64.24;94847.88;4937803;29;20050;-79
2022/02/21 04:34:07;;;;;;;19.85;13.50;;;;;;;7.67;64.43;94838.69;4938586;29;20039;-78
2022/02/21 04:36:37;;;;;;;20.33;14.07;;;;;;;7.65;64.37;94842.50;4937953;29;20027;-78
2022/02/21 04:39:02;;;;;;;15.43;12.43;;;;;;;7.68;64.07;94840.28;4936437;29;20040;-78
2022/02/21 04:41:28;;;;;;;20.98;14.13;;;;;;;7.68;63.73;94840.28;4938462;29;20404;-78
2022/02/21 04:43:56;;;;;;;23.33;14.68;;;;;;;7.53;64.01;94840.59;4936058;29;20131;-78
2022/02/21 04:46:21;;;;;;;28.40;15.20;;;;;;;7.41;64.99;94846.66;4936372;29;20067;-78
2022/02/21 04:48:47;;;;;;;27.23;15.05;;;;;;;7.38;65.54;94829.00;4919926;29;20045;-78
2022/02/21 04:51:12;;;;;;;24.10;16.23;;;;;;;7.44;64.48;94823.75;4936614;29;20047;-79
2022/02/21 04:53:38;;;;;;;42.88;18.70;;;;;;;7.44;64.68;94826.34;4921465;29;20044;-79
2022/02/21 04:56:04;;;;;;;28.23;15.25;;;;;;;7.46;64.92;94818.38;4938141;29;20042;-79
2022/02/21 04:58:29;;;;;;;33.70;20.60;;;;;;;7.56;64.94;94823.84;4936867;29;20035;-78
2022/02/21 05:00:54;;;;;;;42.88;25.92;;;;;;;7.66;64.05;94825.97;4935880;29;20055;-78
2022/02/21 05:03:20;;;;;;;64.88;34.67;;;;;;;7.68;63.44;94814.41;4936731;29;20039;-79
2022/02/21 05:05:45;;;;;;;60.75;33.42;;;;;;;7.68;63.70;94824.75;4938133;29;20035;-80
2022/02/21 05:08:11;;;;;;;58.33;27.08;;;;;;;7.67;63.33;94824.97;4927654;29;20032;-78
2022/02/21 05:10:36;;;;;;;36.28;21.23;;;;;;;7.65;63.66;94817.44;4934703;29;20039;-77
2022/02/21 05:13:02;;;;;;;36.25;20.23;;;;;;;7.66;63.58;94811.25;4934834;29;20111;-76
2022/02/21 05:15:27;;;;;;;29.17;17.67;;;;;;;7.70;63.41;94817.56;4933247;29;20035;-77
2022/02/21 05:17:53;;;;;;;44.72;24.08;;;;;;;7.69;63.41;94815.19;4935946;29;20111;-79
2022/02/21 05:20:18;;;;;;;48.00;27.35;;;;;;;7.68;63.93;94809.22;4937684;29;20058;-79
2022/02/21 05:22:44;;;;;;;39.17;22.17;;;;;;;7.73;63.85;94790.47;4937425;29;20075;-79
2022/02/21 05:25:09;;;;;;;45.78;24.20;;;;;;;7.79;63.57;94800.75;4937012;29;20042;-78
2022/02/21 05:27:38;;;;;;;35.15;21.67;;;;;;;7.82;63.62;94797.75;4937337;29;20459;-79
2022/02/21 05:30:04;;;;;;;24.45;16.45;;;;;;;7.91;63.35;94800.03;4938467;29;20042;-80
2022/02/21 05:32:30;;;;;;;26.38;16.92;;;;;;;8.00;62.94;94798.75;4922234;29;20695;-79
2022/02/21 05:34:56;;;;;;;39.42;22.42;;;;;;;8.07;62.42;94802.06;4938040;29;20055;-79
2022/02/21 05:37:21;;;;;;;34.28;18.48;;;;;;;8.09;62.33;94800.81;4938092;29;20047;-78
2022/02/21 05:39:47;;;;;;;20.80;14.77;;;;;;;8.14;62.15;94800.19;4935929;29;20046;-78
2022/02/21 05:42:13;;;;;;;20.13;13.60;;;;;;;8.18;62.41;94803.16;4920393;29;20028;-78
2022/02/21 05:44:39;;;;;;;25.73;14.77;;;;;;;8.23;62.20;94795.50;4919886;29;20698;-78
2022/02/21 05:47:05;;;;;;;23.38;14.27;;;;;;;8.26;62.48;94795.06;4905412;29;20051;-82
2022/02/21 05:49:32;;;;;;;26.67;16.13;;;;;;;8.35;62.09;94797.19;4920369;29;20031;-80
2022/02/21 05:51:58;;;;;;;35.05;21.40;;;;;;;8.43;61.71;94801.25;4937083;29;20079;-79
2022/02/21 05:54:23;;;;;;;44.47;21.25;;;;;;;8.69;61.72;94792.38;4938316;29;20031;-79
2022/02/21 05:56:49;;;;;;;28.15;17.52;;;;;;;8.98;60.90;94798.56;4929405;29;20038;-79
2022/02/21 05:59:15;;;;;;;25.60;16.30;;;;;;;9.22;60.67;94801.97;4921739;29;20042;-79
2022/02/21 06:01:41;;;;;;;35.85;18.40;;;;;;;9.32;59.74;94794.44;4938757;29;20582;-85
2022/02/21 06:04:08;;;;;;;35.95;18.33;;;;;;;9.44;60.20;94792.66;4907101;29;20050;-79
2022/02/21 06:06:34;;;;;;;28.38;16.33;;;;;;;9.55;58.52;94783.28;4936287;29;20039;-79
2022/02/21 06:08:59;;;;;;;34.47;18.73;;;;;;;9.71;57.96;94787.78;4937359;29;20058;-79
2022/02/21 06:11:25;;;;;;;28.30;17.23;;;;;;;9.76;57.50;94774.13;4921539;29;20031;-79
2022/02/21 06:13:50;;;;;;;28.13;17.38;;;;;;;9.72;58.24;94784.19;4936642;29;20039;-78
2022/02/21 06:16:16;;;;;;;23.08;13.65;;;;;;;9.81;57.45;94774.25;4936453;29;20079;-79
2022/02/21 06:18:41;;;;;;;25.35;16.63;;;;;;;9.93;57.20;94769.84;4938503;29;20043;-79
2022/02/21 06:21:07;;;;;;;31.80;20.17;;;;;;;10.09;57.54;94763.94;4937586;29;20396;-79
2022/02/21 06:23:32;;;;;;;26.10;17.50;;;;;;;10.35;56.80;94759.25;4921538;29;20035;-79
2022/02/21 06:25:58;;;;;;;27.05;17.00;;;;;;;10.72;55.96;94768.25;4936459;29;20031;-79
2022/02/21 06:28:24;;;;;;;24.85;16.65;;;;;;;11.11;55.77;94750.19;4937682;29;20036;-79
2022/02/21 06:30:51;;;;;;;25.30;15.43;;;;;;;11.39;54.00;94752.72;4921990;29;20048;-79
2022/02/21 06:33:17;;;;;;;25.25;14.73;;;;;;;11.77;53.95;94743.34;4938669;29;20119;-79
2022/02/21 06:35:43;;;;;;;23.92;14.10;;;;;;;12.15;52.25;94746.97;4941231;29;20147;-78
2022/02/21 06:38:08;;;;;;;26.13;16.65;;;;;;;12.47;51.24;94742.66;4954674;29;20032;-79
2022/02/21 06:40:34;;;;;;;32.60;17.08;;;;;;;12.61;50.24;94745.66;4953578;29;20174;-78
2022/02/21 06:43:00;;;;;;;32.28;18.80;;;;;;;12.62;49.84;94747.22;4951000;29;20060;-79
2022/02/21 06:45:27;;;;;;;40.85;19.08;;;;;;;12.63;50.00;94740.97;4922211;29;20503;-80
2022/02/21 06:47:53;;;;;;;40.22;21.00;;;;;;;12.66;49.99;94730.06;4937035;29;20047;-79
2022/02/21 06:50:18;;;;;;;40.85;20.55;;;;;;;12.76;50.15;94729.38;4935831;29;20035;-79
2022/02/21 06:52:44;;;;;;;40.35;20.83;;;;;;;13.02;49.76;94733.78;4937032;29;20067;-79
2022/02/21 06:55:12;;;;;;;37.38;19.73;;;;;;;13.23;49.62;94723.53;4921677;29;20039;-79
2022/02/21 06:57:39;;;;;;;37.03;20.70;;;;;;;13.39;49.27;94725.22;4939101;29;20074;-79
2022/02/21 07:00:06;;;;;;;36.53;21.05;;;;;;;13.39;48.14;94722.59;4946614;29;20043;-78
2022/02/21 07:02:31;;;;;;;35.17;21.02;;;;;;;13.24;49.05;94718.06;4942300;29;20126;-79
2022/02/21 07:04:57;;;;;;;40.45;20.52;;;;;;;13.32;48.56;94716.78;4924488;29;20039;-78
2022/02/21 07:07:22;;;;;;;27.10;18.73;;;;;;;13.23;48.49;94720.91;4939568;29;20110;-80
2022/02/21 07:09:48;;;;;;;32.88;20.55;;;;;;;13.11;48.40;94719.22;4920877;29;20040;-80
2022/02/21 07:12:13;;;;;;;34.70;19.88;;;;;;;13.06;48.98;94713.97;4918671;29;20043;-81
2022/02/21 07:14:38;;;;;;;29.20;19.50;;;;;;;13.16;48.63;94715.88;4939613;29;20039;-79
2022/02/21 07:17:05;;;;;;;31.58;19.88;;;;;;;13.28;48.77;94710.50;4928203;29;20051;-79
2022/02/21 07:19:30;;;;;;;35.63;20.35;;;;;;;13.54;48.26;94714.88;4930951;29;20063;-78
2022/02/21 07:21:56;;;;;;;36.08;20.58;;;;;;;13.80;47.82;94707.94;4922566;29;20154;-79
2022/02/21 07:24:21;;;;;;;29.88;20.75;;;;;;;13.94;46.75;94703.84;4948696;29;20039;-77
2022/02/21 07:26:47;;;;;;;31.05;20.10;;;;;;;14.01;46.55;94695.78;4949418;29;20036;-77
2022/02/21 07:29:12;;;;;;;39.67;21.40;;;;;;;14.07;46.67;94687.69;4949161;29;20037;-78
2022/02/21 07:31:38;;;;;;;31.73;19.80;;;;;;;14.15;46.26;94694.22;4941873;29;20035;-80
2022/02/21 07:34:03;;;;;;;41.63;23.88;;;;;;;14.26;45.89;94693.22;4951312;29;20530;-79
2022/02/21 07:36:29;;;;;;;35.38;21.85;;;;;;;14.35;45.51;94686.47;4950497;29;20039;-79
2022/02/21 07:38:55;;;;;;;41.70;23.13;;;;;;;14.42;45.20;94688.81;4950016;29;20036;-77
2022/02/21 07:41:20;;;;;;;36.67;21.52;;;;;;;14.36;45.38;94679.41;4941021;29;20078;-79
2022/02/21 07:43:46;;;;;;;47.25;23.08;;;;;;;14.33;45.40;94680.72;4949264;29;20032;-79
2022/02/21 07:46:12;;;;;;;34.58;22.08;;;;;;;14.33;44.98;94674.69;4948007;29;20093;-78
2022/02/21 07:48:37;;;;;;;37.28;22.65;;;;;;;14.09;46.19;94669.91;4931843;29;20115;-80
2022/02/21 07:51:03;;;;;;;34.70;20.77;;;;;;;14.12;46.24;94669.38;4936637;29;20027;-78
2022/02/21 07:53:28;;;;;;;44.33;21.35;;;;;;;13.99;45.65;94658.63;4935687;29;20042;-79
2022/02/21 07:55:54;;;;;;;37.20;20.90;;;;;;;14.00;47.15;94665.44;4936264;29;20024;-79
2022/02/21 07:58:19;;;;;;;37.13;21.25;;;;;;;14.12;46.45;94663.38;4936781;29;20032;-79
2022/02/21 08:00:45;;;;;;;36.55;19.80;;;;;;;14.17;45.81;94655.56;4935631;29;20354;-79
2022/02/21 08:03:10;;;;;;;47.70;21.10;;;;;;;14.05;45.80;94657.59;4937983;29;20031;-79
2022/02/21 08:05:36;;;;;;;37.08;21.88;;;;;;;14.06;46.05;94653.94;4922616;29;20039;-79
2022/02/21 08:08:08;;;;;;;38.60;22.23;;;;;;;14.13;45.77;94644.81;4920449;29;20043;-79
2022/02/21 08:10:33;;;;;;;42.85;21.75;;;;;;;14.27;46.05;94642.50;4936688;29;20070;-79
2022/02/21 08:12:58;;;;;;;37.95;21.73;;;;;;;14.42;45.32;94641.75;4936358;29;20043;-79
2022/02/21 08:15:24;;;;;;;36.25;22.02;;;;;;;14.49;45.54;94631.84;4936980;29;20060;-79
2022/02/21 08:17:50;;;;;;;38.28;22.42;;;;;;;14.47;44.92;94631.31;4936049;29;20064;-79
2022/02/21 08:20:17;;;;;;;54.72;23.20;;;;;;;14.50;46.31;94632.63;4935371;29;20042;-82
2022/02/21 08:22:43;;;;;;;48.75;22.05;;;;;;;14.62;46.06;94620.84;4934598;29;20666;-78
2022/02/21 08:25:09;;;;;;;35.85;20.55;;;;;;;14.72;44.35;94627.94;4936030;29;20036;-79
2022/02/21 08:27:37;;;;;;;39.70;20.10;;;;;;;14.68;44.26;94621.66;4935164;29;20044;-78
2022/02/21 08:30:07;;;;;;;43.33;19.48;;;;;;;14.61;44.87;94623.72;4935061;29;20040;-79
2022/02/21 08:32:33;;;;;;;34.00;18.38;;;;;;;14.60;44.86;94617.72;4933631;29;20028;-79
2022/02/21 08:34:58;;;;;;;39.83;18.20;;;;;;;14.46;44.86;94615.88;4932962;29;20470;-79
2022/02/21 08:37:24;;;;;;;35.58;18.50;;;;;;;14.36;45.20;94601.72;4935187;29;20484;-79
2022/02/21 08:39:49;;;;;;;34.25;17.52;;;;;;;14.33;45.26;94601.47;4934473;29;20036;-79
2022/02/21 08:42:15;;;;;;;38.13;17.95;;;;;;;14.44;45.32;94597.03;4934640;29;20035;-79
2022/02/21 08:44:40;;;;;;;28.70;18.23;;;;;;;14.45;44.98;94593.38;4935539;29;20067;-79
2022/02/21 08:47:05;;;;;;;26.55;18.25;;;;;;;14.50;44.72;94593.41;4933794;29;20067;-79
2022/02/21 08:49:31;;;;;;;34.30;18.50;;;;;;;14.25;45.26;94588.88;4918800;29;20503;-78
2022/02/21 08:51:57;;;;;;;34.00;18.95;;;;;;;14.34;45.33;94595.97;4935412;29;20032;-78
2022/02/21 08:54:23;;;;;;;35.78;19.75;;;;;;;14.64;45.49;94581.34;4938157;29;20032;-78
2022/02/21 08:56:48;;;;;;;35.40;18.90;;;;;;;14.83;44.08;94579.00;4937529;29;20101;-78
2022/02/21 08:59:16;;;;;;;30.30;17.08;;;;;;;14.77;43.82;94565.09;4939535;29;20040;-79
2022/02/21 09:01:44;;;;;;;26.70;16.67;;;;;;;14.89;44.94;94557.75;4937307;29;20039;-78
2022/02/21 09:04:10;;;;;;;29.92;18.13;;;;;;;15.00;44.71;94564.56;4929836;29;20035;-78
2022/02/21 09:06:36;;;;;;;40.65;18.73;;;;;;;15.06;44.08;94560.09;4922194;29;20118;-78
2022/02/21 09:09:01;;;;;;;35.90;17.60;;;;;;;15.05;43.52;94549.88;4938235;29;20051;-79
2022/02/21 09:11:27;;;;;;;27.10;15.88;;;;;;;15.04;43.68;94543.06;4935146;29;20036;-78
2022/02/21 09:13:52;;;;;;;27.60;16.98;;;;;;;15.00;43.95;94541.00;4921535;29;20039;-78
2022/02/21 09:16:18;;;;;;;33.03;18.17;;;;;;;14.99;44.32;94547.28;4941505;29;20039;-80
2022/02/21 09:18:43;;;;;;;27.85;17.08;;;;;;;15.06;44.28;94540.97;4939872;29;20036;-79
2022/02/21 09:21:09;;;;;;;27.73;16.42;;;;;;;15.14;43.87;94538.59;4922362;29;20091;-79
2022/02/21 09:23:34;;;;;;;27.52;17.42;;;;;;;15.19;43.68;94529.94;4941163;29;20044;-82
2022/02/21 09:26:00;;;;;;;49.15;17.02;;;;;;;15.18;43.72;94533.63;4941639;29;20064;-78
2022/02/21 09:28:25;;;;;;;37.53;16.30;;;;;;;15.24;43.84;94525.47;4937389;29;20099;-78
2022/02/21 09:30:53;;;;;;;27.98;16.25;;;;;;;15.18;43.29;94521.31;4938468;29;20047;-78
2022/02/21 09:33:20;;;;;;;29.58;17.35;;;;;;;15.17;43.48;94516.34;4923715;29;20126;-79
2022/02/21 09:36:10;;;;;;;26.92;16.20;;;;;;;15.22;43.34;94518.94;4938521;29;20034;-77
2022/02/21 09:38:36;;;;;;;33.65;16.05;;;;;;;15.17;44.06;94509.25;4938383;29;20036;-78
2022/02/21 09:41:03;;;;;;;30.83;16.17;;;;;;;15.21;43.43;94507.66;4939025;29;20035;-77
2022/02/21 09:43:29;;;;;;;24.65;15.43;;;;;;;15.20;43.56;94500.06;4947231;29;20028;-78
2022/02/21 09:46:03;;;;;;;27.77;15.32;;;;;;;15.12;43.85;94496.16;4942438;29;20051;-78
2022/02/21 09:48:29;;;;;;;38.70;15.82;;;;;;;15.06;43.76;94488.59;4937688;29;20051;-78
2022/02/21 09:51:00;;;;;;;30.23;15.77;;;;;;;15.08;44.08;94491.72;4923614;29;20043;-79
2022/02/21 09:53:31;;;;;;;36.08;16.63;;;;;;;15.12;44.55;94479.66;4932361;29;20039;-78
2022/02/21 09:55:57;;;;;;;38.90;16.63;;;;;;;15.20;44.28;94481.75;4938215;29;20044;-79
2022/02/21 09:58:22;;;;;;;42.95;16.88;;;;;;;15.21;44.03;94476.22;4923296;29;20047;-79
2022/02/21 10:00:49;;;;;;;29.85;16.60;;;;;;;15.18;43.90;94476.78;4939765;29;20122;-79
2022/02/21 10:03:37;;;;;;;37.60;15.23;;;;;;;15.12;43.90;94472.59;5061393;23;20051;-78
2022/02/21 10:06:24;;;;;;;26.58;15.68;;;;;;;14.96;44.19;94468.47;4954625;29;20377;-79
2022/02/21 10:09:17;;;;;;;28.67;15.50;;;;;;;14.92;44.13;94455.13;4957474;28;20043;-81
2022/02/21 10:11:47;;;;;;;32.47;15.80;;;;;;;15.00;44.08;94440.72;4957374;29;20484;-79
2022/02/21 10:14:23;;;;;;;37.90;16.85;;;;;;;14.96;44.25;94443.06;4968324;28;20046;-80
2022/02/21 10:16:49;;;;;;;30.02;16.70;;;;;;;14.68;45.26;94430.59;4953702;29;20059;-78
2022/02/21 10:19:25;;;;;;;29.75;17.63;;;;;;;14.75;45.23;94428.47;4952975;28;20054;-78
2022/02/21 10:22:01;;;;;;;45.08;17.23;;;;;;;14.86;44.82;94427.41;4953639;29;20089;-78
2022/02/21 10:24:31;;;;;;;36.55;15.90;;;;;;;14.92;44.63;94415.06;4953739;23;20618;-78
2022/02/21 10:27:04;;;;;;;26.55;16.63;;;;;;;15.03;44.38;94411.38;5137664;23;20142;-78
2022/02/21 10:29:29;;;;;;;28.35;17.60;;;;;;;15.08;44.28;94413.19;4968835;28;20038;-78
2022/02/21 10:32:07;;;;;;;53.20;17.75;;;;;;;15.04;44.11;94402.47;4972886;28;20031;-78
2022/02/21 10:34:33;;;;;;;34.05;16.73;;;;;;;14.89;44.50;94398.06;4973139;28;20039;-78
2022/02/21 10:36:58;;;;;;;37.60;17.23;;;;;;;14.88;44.62;94383.41;4973343;28;20034;-78
2022/02/21 10:39:25;;;;;;;25.55;16.17;;;;;;;14.84;45.41;94373.75;4974824;28;20418;-80
2022/02/21 10:41:52;;;;;;;35.63;16.02;;;;;;;14.91;44.99;94375.03;5009145;23;20039;-78
2022/02/21 10:44:21;;;;;;;45.63;18.92;;;;;;;14.95;45.10;94373.41;4972806;28;20039;-77
2022/02/21 10:46:59;;;;;;;33.70;17.67;;;;;;;15.13;44.47;94358.16;4968705;29;20047;-77
2022/02/21 10:49:49;;;;;;;35.97;16.02;;;;;;;15.31;44.36;94350.47;4967926;28;20082;-80
2022/02/21 10:52:25;;;;;;;29.50;16.65;;;;;;;15.43;43.56;94339.63;4940248;29;20618;-78
2022/02/21 10:54:51;;;;;;;31.85;16.70;;;;;;;15.46;43.66;94335.69;4953628;29;20035;-80
2022/02/21 10:57:18;;;;;;;42.05;17.10;;;;;;;15.50;43.78;94327.00;4920892;29;20054;-79
2022/02/21 10:59:43;;;;;;;34.83;16.15;;;;;;;15.55;43.68;94321.72;4993262;23;20039;-79
2022/02/21 11:02:14;;;;;;;26.80;15.52;;;;;;;15.38;43.64;94321.31;4945256;29;20110;-78
2022/02/21 11:04:40;;;;;;;28.23;16.77;;;;;;;15.52;43.58;94303.94;4935397;28;20413;-79
2022/02/21 11:07:06;;;;;;;42.42;16.25;;;;;;;15.59;43.61;94303.63;4926892;29;20052;-80
2022/02/21 11:09:32;;;;;;;44.33;16.67;;;;;;;15.76;43.63;94295.34;4942212;28;20044;-80
2022/02/21 11:11:59;;;;;;;37.05;16.42;;;;;;;15.94;43.13;94299.91;4908114;29;20024;-80
2022/02/21 11:14:27;;;;;;;43.75;17.27;;;;;;;15.66;43.10;94288.38;4926984;29;20150;-80
2022/02/21 11:16:53;;;;;;;33.92;16.50;;;;;;;15.57;43.58;94274.28;4938267;29;20032;-80
2022/02/21 11:19:18;;;;;;;29.85;16.95;;;;;;;15.53;43.85;94276.66;4905535;29;20573;-80
2022/02/21 11:21:44;;;;;;;33.90;16.70;;;;;;;15.58;43.59;94265.34;4905369;29;20110;-80